sensor_id;sensor_type;location;lat;lon;timestamp;pressure;altitude;pressure_sealevel;temperature;humidity
4085;BME280;2057;50.858;6.572;2023-12-20T00:00:36;100322.13;;;6.89;100.00
4085;BME280;2057;50.858;6.572;2023-12-20T00:03:02;100320.59;;;6.91;100.00
4085;BME280;2057;50.858;6.572;2023-12-20T00:05:28;100319.69;;;6.90;100.00
4085;BME280;2057;50.858;6.572;2023-12-20T00:07:53;100310.66;;;6.94;100.00
4085;BME280;2057;50.858;6.572;2023-12-20T00:10:18;100311.75;;;6.98;100.00
4085;BME280;2057;50.858;6.572;2023-12-20T00:12:43;100316.78;;;6.98;100.00
4085;BME280;2057;50.858;6.572;2023-12-20T00:15:11;100342.03;;;6.98;100.00
4085;BME280;2057;50.858;6.572;2023-12-20T00:17:36;100328.53;;;6.97;100.00
4085;BME280;2057;50.858;6.572;2023-12-20T00:20:02;100330.19;;;6.97;100.00
4085;BME280;2057;50.858;6.572;2023-12-20T00:22:27;100327.81;;;7.00;100.00
4085;BME280;2057;50.858;6.572;2023-12-20T00:24:53;100330.19;;;6.97;100.00
4085;BME280;2057;50.858;6.572;2023-12-20T00:27:18;100326.00;;;6.97;100.00
4085;BME280;2057;50.858;6.572;2023-12-20T00:29:43;100333.47;;;6.96;100.00
4085;BME280;2057;50.858;6.572;2023-12-20T00:32:12;100331.94;;;6.98;100.00
4085;BME280;2057;50.858;6.572;2023-12-20T00:34:38;100323.38;;;6.96;100.00
4085;BME280;2057;50.858;6.572;2023-12-20T00:37:03;100329.72;;;6.89;100.00
4085;BME280;2057;50.858;6.572;2023-12-20T00:39:29;100327.25;;;6.90;100.00
4085;BME280;2057;50.858;6.572;2023-12-20T00:41:54;100342.31;;;6.89;100.00
4085;BME280;2057;50.858;6.572;2023-12-20T00:44:19;100333.00;;;6.88;100.00
4085;BME280;2057;50.858;6.572;2023-12-20T00:46:45;100341.34;;;6.87;100.00
4085;BME280;2057;50.858;6.572;2023-12-20T00:49:10;100340.50;;;6.86;100.00
4085;BME280;2057;50.858;6.572;2023-12-20T00:51:35;100338.94;;;6.88;100.00
4085;BME280;2057;50.858;6.572;2023-12-20T00:54:01;100340.78;;;6.91;100.00
4085;BME280;2057;50.858;6.572;2023-12-20T00:59:01;100350.66;;;6.88;100.00
4085;BME280;2057;50.858;6.572;2023-12-20T01:01:26;100368.25;;;6.86;100.00
4085;BME280;2057;50.858;6.572;2023-12-20T01:03:52;100351.16;;;6.82;100.00
4085;BME280;2057;50.858;6.572;2023-12-20T01:06:18;100353.03;;;6.85;100.00
4085;BME280;2057;50.858;6.572;2023-12-20T01:08:43;100353.28;;;6.89;100.00
4085;BME280;2057;50.858;6.572;2023-12-20T01:11:08;100356.91;;;6.80;100.00
4085;BME280;2057;50.858;6.572;2023-12-20T01:13:33;100348.25;;;6.76;100.00
4085;BME280;2057;50.858;6.572;2023-12-20T01:15:59;100358.94;;;6.72;100.00
4085;BME280;2057;50.858;6.572;2023-12-20T01:18:24;100361.66;;;6.75;100.00
4085;BME280;2057;50.858;6.572;2023-12-20T01:20:53;100358.16;;;6.73;100.00
4085;BME280;2057;50.858;6.572;2023-12-20T01:23:18;100362.06;;;6.68;100.00
4085;BME280;2057;50.858;6.572;2023-12-20T01:25:46;100363.44;;;6.63;100.00
4085;BME280;2057;50.858;6.572;2023-12-20T01:28:11;100364.09;;;6.60;100.00
4085;BME280;2057;50.858;6.572;2023-12-20T01:30:37;100374.41;;;6.50;100.00
4085;BME280;2057;50.858;6.572;2023-12-20T01:33:03;100360.03;;;6.49;100.00
4085;BME280;2057;50.858;6.572;2023-12-20T01:35:28;100381.16;;;6.37;100.00
4085;BME280;2057;50.858;6.572;2023-12-20T01:37:53;100390.88;;;6.31;100.00
4085;BME280;2057;50.858;6.572;2023-12-20T01:40:22;100387.44;;;6.17;100.00
4085;BME280;2057;50.858;6.572;2023-12-20T01:43:00;100400.06;;;6.17;100.00
4085;BME280;2057;50.858;6.572;2023-12-20T01:45:26;100418.88;;;5.97;100.00
4085;BME280;2057;50.858;6.572;2023-12-20T01:47:51;100408.78;;;5.97;100.00
4085;BME280;2057;50.858;6.572;2023-12-20T01:50:17;100412.84;;;5.95;100.00
4085;BME280;2057;50.858;6.572;2023-12-20T01:52:43;100410.72;;;5.88;100.00
4085;BME280;2057;50.858;6.572;2023-12-20T01:55:10;100409.72;;;5.86;100.00
4085;BME280;2057;50.858;6.572;2023-12-20T01:57:43;100416.00;;;5.79;100.00
4085;BME280;2057;50.858;6.572;2023-12-20T02:00:12;100398.41;;;5.67;100.00
4085;BME280;2057;50.858;6.572;2023-12-20T02:02:40;100405.88;;;5.65;100.00
4085;BME280;2057;50.858;6.572;2023-12-20T02:05:06;100407.00;;;5.57;100.00
4085;BME280;2057;50.858;6.572;2023-12-20T02:07:32;100409.09;;;5.51;100.00
4085;BME280;2057;50.858;6.572;2023-12-20T02:10:03;100423.34;;;5.50;100.00
4085;BME280;2057;50.858;6.572;2023-12-20T02:12:31;100419.72;;;5.47;100.00
4085;BME280;2057;50.858;6.572;2023-12-20T02:14:56;100433.66;;;5.42;100.00
4085;BME280;2057;50.858;6.572;2023-12-20T02:17:22;100421.63;;;5.38;100.00
4085;BME280;2057;50.858;6.572;2023-12-20T02:19:47;100416.03;;;5.42;100.00
4085;BME280;2057;50.858;6.572;2023-12-20T02:22:15;100422.34;;;5.48;100.00
4085;BME280;2057;50.858;6.572;2023-12-20T02:24:40;100427.72;;;5.41;100.00
4085;BME280;2057;50.858;6.572;2023-12-20T02:27:07;100420.84;;;5.39;100.00
4085;BME280;2057;50.858;6.572;2023-12-20T02:29:33;100429.81;;;5.47;100.00
4085;BME280;2057;50.858;6.572;2023-12-20T02:31:59;100420.41;;;5.44;100.00
4085;BME280;2057;50.858;6.572;2023-12-20T02:34:24;100433.09;;;5.46;100.00
4085;BME280;2057;50.858;6.572;2023-12-20T02:36:49;100432.00;;;5.42;100.00
4085;BME280;2057;50.858;6.572;2023-12-20T02:39:15;100427.38;;;5.48;100.00
4085;BME280;2057;50.858;6.572;2023-12-20T02:41:44;100434.25;;;5.51;100.00
4085;BME280;2057;50.858;6.572;2023-12-20T02:44:09;100444.16;;;5.48;100.00
4085;BME280;2057;50.858;6.572;2023-12-20T02:46:34;100437.09;;;5.56;100.00
4085;BME280;2057;50.858;6.572;2023-12-20T02:49:00;100429.75;;;5.59;100.00
4085;BME280;2057;50.858;6.572;2023-12-20T02:51:25;100423.97;;;5.60;100.00
4085;BME280;2057;50.858;6.572;2023-12-20T02:53:50;100427.25;;;5.59;100.00
4085;BME280;2057;50.858;6.572;2023-12-20T02:56:16;100433.00;;;5.70;100.00
4085;BME280;2057;50.858;6.572;2023-12-20T02:58:41;100420.97;;;5.65;100.00
4085;BME280;2057;50.858;6.572;2023-12-20T03:01:07;100434.44;;;5.66;100.00
4085;BME280;2057;50.858;6.572;2023-12-20T03:03:32;100434.56;;;5.68;100.00
4085;BME280;2057;50.858;6.572;2023-12-20T03:05:57;100440.16;;;5.63;100.00
4085;BME280;2057;50.858;6.572;2023-12-20T03:08:25;100424.50;;;5.68;100.00
4085;BME280;2057;50.858;6.572;2023-12-20T03:10:50;100432.91;;;5.68;100.00
4085;BME280;2057;50.858;6.572;2023-12-20T03:13:20;100420.31;;;5.68;100.00
4085;BME280;2057;50.858;6.572;2023-12-20T03:15:46;100422.59;;;5.65;100.00
4085;BME280;2057;50.858;6.572;2023-12-20T03:18:11;100417.69;;;5.67;100.00
4085;BME280;2057;50.858;6.572;2023-12-20T03:20:36;100423.06;;;5.71;100.00
4085;BME280;2057;50.858;6.572;2023-12-20T03:23:02;100430.06;;;5.63;100.00
4085;BME280;2057;50.858;6.572;2023-12-20T03:25:28;100434.69;;;5.57;100.00
4085;BME280;2057;50.858;6.572;2023-12-20T03:27:56;100429.66;;;5.57;100.00
4085;BME280;2057;50.858;6.572;2023-12-20T03:30:21;100421.88;;;5.54;100.00
4085;BME280;2057;50.858;6.572;2023-12-20T03:32:47;100425.59;;;5.59;100.00
4085;BME280;2057;50.858;6.572;2023-12-20T03:35:12;100433.44;;;5.64;100.00
4085;BME280;2057;50.858;6.572;2023-12-20T03:37:38;100428.22;;;5.61;100.00
4085;BME280;2057;50.858;6.572;2023-12-20T03:40:04;100429.44;;;5.54;100.00
4085;BME280;2057;50.858;6.572;2023-12-20T03:42:29;100434.78;;;5.59;100.00
4085;BME280;2057;50.858;6.572;2023-12-20T03:44:54;100428.00;;;5.58;100.00
4085;BME280;2057;50.858;6.572;2023-12-20T03:47:22;100417.84;;;5.56;100.00
4085;BME280;2057;50.858;6.572;2023-12-20T03:49:47;100413.78;;;5.58;100.00
4085;BME280;2057;50.858;6.572;2023-12-20T03:52:13;100412.13;;;5.59;100.00
4085;BME280;2057;50.858;6.572;2023-12-20T03:54:40;100416.81;;;5.66;100.00
4085;BME280;2057;50.858;6.572;2023-12-20T03:57:07;100401.50;;;5.63;100.00
4085;BME280;2057;50.858;6.572;2023-12-20T03:59:37;100407.78;;;5.56;100.00
4085;BME280;2057;50.858;6.572;2023-12-20T04:02:03;100405.72;;;5.50;100.00
4085;BME280;2057;50.858;6.572;2023-12-20T04:04:29;100403.94;;;5.49;100.00
4085;BME280;2057;50.858;6.572;2023-12-20T04:06:54;100416.63;;;5.51;100.00
4085;BME280;2057;50.858;6.572;2023-12-20T04:09:20;100414.13;;;5.51;100.00
4085;BME280;2057;50.858;6.572;2023-12-20T04:11:48;100423.00;;;5.46;100.00
4085;BME280;2057;50.858;6.572;2023-12-20T04:14:14;100417.75;;;5.43;100.00
4085;BME280;2057;50.858;6.572;2023-12-20T04:16:39;100414.28;;;5.41;100.00
4085;BME280;2057;50.858;6.572;2023-12-20T04:19:05;100395.31;;;5.46;100.00
4085;BME280;2057;50.858;6.572;2023-12-20T04:21:32;100403.72;;;5.46;100.00
4085;BME280;2057;50.858;6.572;2023-12-20T04:23:57;100402.50;;;5.53;100.00
4085;BME280;2057;50.858;6.572;2023-12-20T04:26:23;100397.44;;;5.40;100.00
4085;BME280;2057;50.858;6.572;2023-12-20T04:28:48;100404.00;;;5.38;100.00
4085;BME280;2057;50.858;6.572;2023-12-20T04:31:14;100409.03;;;5.38;100.00
4085;BME280;2057;50.858;6.572;2023-12-20T04:33:39;100405.06;;;5.41;100.00
4085;BME280;2057;50.858;6.572;2023-12-20T04:36:04;100412.53;;;5.40;100.00
4085;BME280;2057;50.858;6.572;2023-12-20T04:38:30;100436.06;;;5.40;100.00
4085;BME280;2057;50.858;6.572;2023-12-20T04:40:55;100424.34;;;5.41;100.00
4085;BME280;2057;50.858;6.572;2023-12-20T04:43:21;100430.91;;;5.39;100.00
4085;BME280;2057;50.858;6.572;2023-12-20T04:45:49;100437.81;;;5.41;100.00
4085;BME280;2057;50.858;6.572;2023-12-20T04:48:14;100437.91;;;5.43;100.00
4085;BME280;2057;50.858;6.572;2023-12-20T04:50:39;100432.69;;;5.40;100.00
4085;BME280;2057;50.858;6.572;2023-12-20T04:53:05;100421.84;;;5.41;100.00
4085;BME280;2057;50.858;6.572;2023-12-20T04:55:32;100423.50;;;5.28;100.00
4085;BME280;2057;50.858;6.572;2023-12-20T04:57:58;100425.03;;;5.26;100.00
4085;BME280;2057;50.858;6.572;2023-12-20T05:00:23;100423.28;;;5.25;100.00
4085;BME280;2057;50.858;6.572;2023-12-20T05:02:49;100424.16;;;5.26;100.00
4085;BME280;2057;50.858;6.572;2023-12-20T05:05:14;100419.91;;;5.25;100.00
4085;BME280;2057;50.858;6.572;2023-12-20T05:07:40;100436.84;;;5.27;100.00
4085;BME280;2057;50.858;6.572;2023-12-20T05:10:06;100435.31;;;5.29;100.00
4085;BME280;2057;50.858;6.572;2023-12-20T05:12:33;100432.72;;;5.28;100.00
4085;BME280;2057;50.858;6.572;2023-12-20T05:14:58;100437.25;;;5.33;100.00
4085;BME280;2057;50.858;6.572;2023-12-20T05:17:24;100428.75;;;5.31;100.00
4085;BME280;2057;50.858;6.572;2023-12-20T05:19:50;100428.84;;;5.33;100.00
4085;BME280;2057;50.858;6.572;2023-12-20T05:22:15;100431.47;;;5.34;100.00
4085;BME280;2057;50.858;6.572;2023-12-20T05:24:41;100419.78;;;5.35;100.00
4085;BME280;2057;50.858;6.572;2023-12-20T05:27:06;100425.97;;;5.40;100.00
4085;BME280;2057;50.858;6.572;2023-12-20T05:29:31;100429.16;;;5.38;100.00
4085;BME280;2057;50.858;6.572;2023-12-20T05:31:58;100422.06;;;5.32;100.00
4085;BME280;2057;50.858;6.572;2023-12-20T05:34:23;100427.00;;;5.30;100.00
4085;BME280;2057;50.858;6.572;2023-12-20T05:36:49;100434.19;;;5.38;100.00
4085;BME280;2057;50.858;6.572;2023-12-20T05:39:14;100431.28;;;5.31;100.00
4085;BME280;2057;50.858;6.572;2023-12-20T05:41:39;100437.06;;;5.30;100.00
4085;BME280;2057;50.858;6.572;2023-12-20T05:44:05;100430.50;;;5.32;100.00
4085;BME280;2057;50.858;6.572;2023-12-20T05:46:30;100429.63;;;5.32;100.00
4085;BME280;2057;50.858;6.572;2023-12-20T05:48:58;100428.94;;;5.34;100.00
4085;BME280;2057;50.858;6.572;2023-12-20T05:51:23;100436.72;;;5.38;100.00
4085;BME280;2057;50.858;6.572;2023-12-20T05:53:48;100431.28;;;5.31;100.00
4085;BME280;2057;50.858;6.572;2023-12-20T05:56:15;100433.13;;;5.34;100.00
4085;BME280;2057;50.858;6.572;2023-12-20T05:58:40;100429.94;;;5.37;100.00
4085;BME280;2057;50.858;6.572;2023-12-20T06:01:06;100437.72;;;5.40;100.00
4085;BME280;2057;50.858;6.572;2023-12-20T06:03:33;100433.44;;;5.39;100.00
4085;BME280;2057;50.858;6.572;2023-12-20T06:05:59;100426.28;;;5.45;100.00
4085;BME280;2057;50.858;6.572;2023-12-20T06:08:25;100437.72;;;5.40;100.00
4085;BME280;2057;50.858;6.572;2023-12-20T06:10:51;100436.28;;;5.43;100.00
4085;BME280;2057;50.858;6.572;2023-12-20T06:13:16;100435.50;;;5.44;100.00
4085;BME280;2057;50.858;6.572;2023-12-20T06:15:42;100439.66;;;5.44;100.00
4085;BME280;2057;50.858;6.572;2023-12-20T06:18:07;100430.97;;;5.52;100.00
4085;BME280;2057;50.858;6.572;2023-12-20T06:20:33;100441.81;;;5.51;100.00
4085;BME280;2057;50.858;6.572;2023-12-20T06:22:58;100431.97;;;5.54;100.00
4085;BME280;2057;50.858;6.572;2023-12-20T06:25:24;100443.56;;;5.52;100.00
4085;BME280;2057;50.858;6.572;2023-12-20T06:27:49;100448.72;;;5.54;100.00
4085;BME280;2057;50.858;6.572;2023-12-20T06:30:15;100449.50;;;5.53;100.00
4085;BME280;2057;50.858;6.572;2023-12-20T06:32:41;100448.81;;;5.55;100.00
4085;BME280;2057;50.858;6.572;2023-12-20T06:35:08;100446.84;;;5.63;100.00
4085;BME280;2057;50.858;6.572;2023-12-20T06:37:34;100458.13;;;5.56;100.00
4085;BME280;2057;50.858;6.572;2023-12-20T06:40:00;100453.00;;;5.55;100.00
4085;BME280;2057;50.858;6.572;2023-12-20T06:42:25;100455.41;;;5.53;100.00
4085;BME280;2057;50.858;6.572;2023-12-20T06:44:50;100437.66;;;5.52;100.00
4085;BME280;2057;50.858;6.572;2023-12-20T06:47:16;100450.56;;;5.56;100.00
4085;BME280;2057;50.858;6.572;2023-12-20T06:49:41;100448.16;;;5.58;100.00
4085;BME280;2057;50.858;6.572;2023-12-20T06:52:12;100445.53;;;5.56;100.00
4085;BME280;2057;50.858;6.572;2023-12-20T06:54:38;100447.69;;;5.63;100.00
4085;BME280;2057;50.858;6.572;2023-12-20T06:57:03;100444.66;;;5.56;100.00
4085;BME280;2057;50.858;6.572;2023-12-20T06:59:29;100448.06;;;5.56;100.00
4085;BME280;2057;50.858;6.572;2023-12-20T07:01:55;100454.09;;;5.58;100.00
4085;BME280;2057;50.858;6.572;2023-12-20T07:04:20;100455.63;;;5.56;100.00
4085;BME280;2057;50.858;6.572;2023-12-20T07:06:48;100457.56;;;5.60;100.00
4085;BME280;2057;50.858;6.572;2023-12-20T07:09:14;100457.38;;;5.57;100.00
4085;BME280;2057;50.858;6.572;2023-12-20T07:11:39;100448.06;;;5.56;100.00
4085;BME280;2057;50.858;6.572;2023-12-20T07:14:04;100435.03;;;5.62;100.00
4085;BME280;2057;50.858;6.572;2023-12-20T07:16:32;100444.19;;;5.61;100.00
4085;BME280;2057;50.858;6.572;2023-12-20T07:19:00;100434.13;;;5.61;100.00
4085;BME280;2057;50.858;6.572;2023-12-20T07:21:25;100450.56;;;5.56;100.00
4085;BME280;2057;50.858;6.572;2023-12-20T07:23:51;100447.28;;;5.57;100.00
4085;BME280;2057;50.858;6.572;2023-12-20T07:26:18;100442.03;;;5.54;100.00
4085;BME280;2057;50.858;6.572;2023-12-20T07:28:44;100448.81;;;5.55;100.00
4085;BME280;2057;50.858;6.572;2023-12-20T07:31:10;100449.03;;;5.58;100.00
4085;BME280;2057;50.858;6.572;2023-12-20T07:33:35;100452.53;;;5.60;100.00
4085;BME280;2057;50.858;6.572;2023-12-20T07:36:00;100452.44;;;5.59;100.00
4085;BME280;2057;50.858;6.572;2023-12-20T07:38:26;100446.41;;;5.57;100.00
4085;BME280;2057;50.858;6.572;2023-12-20T07:40:51;100444.66;;;5.56;100.00
4085;BME280;2057;50.858;6.572;2023-12-20T07:43:16;100449.22;;;5.61;100.00
4085;BME280;2057;50.858;6.572;2023-12-20T07:45:42;100446.53;;;5.58;100.00
4085;BME280;2057;50.858;6.572;2023-12-20T07:48:10;100448.81;;;5.55;100.00
4085;BME280;2057;50.858;6.572;2023-12-20T07:50:35;100449.22;;;5.61;100.00
4085;BME280;2057;50.858;6.572;2023-12-20T07:53:02;100452.31;;;5.57;100.00
4085;BME280;2057;50.858;6.572;2023-12-20T07:55:28;100452.78;;;5.52;100.00
4085;BME280;2057;50.858;6.572;2023-12-20T07:57:57;100449.94;;;5.47;100.00
4085;BME280;2057;50.858;6.572;2023-12-20T08:00:23;100445.69;;;5.46;100.00
4085;BME280;2057;50.858;6.572;2023-12-20T08:02:48;100420.72;;;5.49;100.00
4085;BME280;2057;50.858;6.572;2023-12-20T08:05:14;100438.56;;;5.40;100.00
4085;BME280;2057;50.858;6.572;2023-12-20T08:07:39;100429.81;;;5.47;100.00
4085;BME280;2057;50.858;6.572;2023-12-20T08:10:05;100446.34;;;5.43;100.00
4085;BME280;2057;50.858;6.572;2023-12-20T08:12:31;100445.59;;;5.44;100.00
4085;BME280;2057;50.858;6.572;2023-12-20T08:14:58;100443.50;;;5.39;100.00
4085;BME280;2057;50.858;6.572;2023-12-20T08:17:24;100444.19;;;5.36;100.00
4085;BME280;2057;50.858;6.572;2023-12-20T08:19:49;100446.03;;;5.39;100.00
4085;BME280;2057;50.858;6.572;2023-12-20T08:22:14;100448.66;;;5.28;100.00
4085;BME280;2057;50.858;6.572;2023-12-20T08:24:40;100428.63;;;5.30;100.00
4085;BME280;2057;50.858;6.572;2023-12-20T08:27:05;100430.50;;;5.32;100.00
4085;BME280;2057;50.858;6.572;2023-12-20T08:29:30;100429.84;;;5.35;100.00
4085;BME280;2057;50.858;6.572;2023-12-20T08:31:56;100427.19;;;5.45;100.00
4085;BME280;2057;50.858;6.572;2023-12-20T08:34:22;100425.94;;;5.52;100.00
4085;BME280;2057;50.858;6.572;2023-12-20T08:36:51;100432.72;;;5.53;100.00
4085;BME280;2057;50.858;6.572;2023-12-20T08:39:17;100427.69;;;5.53;100.00
4085;BME280;2057;50.858;6.572;2023-12-20T08:41:42;100425.72;;;5.61;100.00
4085;BME280;2057;50.858;6.572;2023-12-20T08:44:10;100431.38;;;5.70;100.00
4085;BME280;2057;50.858;6.572;2023-12-20T08:46:36;100424.38;;;5.66;100.00
4085;BME280;2057;50.858;6.572;2023-12-20T08:49:02;100442.25;;;5.57;100.00
4085;BME280;2057;50.858;6.572;2023-12-20T08:51:27;100446.31;;;5.55;100.00
4085;BME280;2057;50.858;6.572;2023-12-20T08:53:53;100450.13;;;5.62;100.00
4085;BME280;2057;50.858;6.572;2023-12-20T08:56:19;100449.69;;;5.68;100.00
4085;BME280;2057;50.858;6.572;2023-12-20T08:58:45;100459.75;;;5.68;100.00
4085;BME280;2057;50.858;6.572;2023-12-20T09:01:11;100447.78;;;5.65;100.00
4085;BME280;2057;50.858;6.572;2023-12-20T09:03:37;100453.16;;;5.70;100.00
4085;BME280;2057;50.858;6.572;2023-12-20T09:06:03;100456.75;;;5.73;100.00
4085;BME280;2057;50.858;6.572;2023-12-20T09:08:28;100459.47;;;5.76;100.00
4085;BME280;2057;50.858;6.572;2023-12-20T09:10:53;100440.00;;;5.74;100.00
4085;BME280;2057;50.858;6.572;2023-12-20T09:13:19;100454.84;;;5.82;100.00
4085;BME280;2057;50.858;6.572;2023-12-20T09:15:45;100457.06;;;5.78;100.00
4085;BME280;2057;50.858;6.572;2023-12-20T09:18:11;100448.06;;;5.81;100.00
4085;BME280;2057;50.858;6.572;2023-12-20T09:20:36;100454.75;;;5.81;100.00
4085;BME280;2057;50.858;6.572;2023-12-20T09:23:01;100448.38;;;5.86;100.00
4085;BME280;2057;50.858;6.572;2023-12-20T09:25:29;100434.16;;;5.87;100.00
4085;BME280;2057;50.858;6.572;2023-12-20T09:27:55;100447.41;;;5.84;100.00
4085;BME280;2057;50.858;6.572;2023-12-20T09:30:20;100453.09;;;5.81;100.00
4085;BME280;2057;50.858;6.572;2023-12-20T09:32:46;100443.56;;;5.89;100.00
4085;BME280;2057;50.858;6.572;2023-12-20T09:35:11;100443.19;;;5.96;100.00
4085;BME280;2057;50.858;6.572;2023-12-20T09:37:36;100434.63;;;5.94;100.00
4085;BME280;2057;50.858;6.572;2023-12-20T09:40:03;100434.22;;;6.00;100.00
4085;BME280;2057;50.858;6.572;2023-12-20T09:42:43;100443.84;;;5.94;100.00
4085;BME280;2057;50.858;6.572;2023-12-20T09:45:15;100446.28;;;5.92;100.00
4085;BME280;2057;50.858;6.572;2023-12-20T09:47:47;100443.44;;;6.00;100.00
4085;BME280;2057;50.858;6.572;2023-12-20T09:50:16;100445.94;;;6.00;100.00
4085;BME280;2057;50.858;6.572;2023-12-20T09:52:43;100444.63;;;5.93;100.00
4085;BME280;2057;50.858;6.572;2023-12-20T09:55:09;100442.00;;;5.91;100.00
4085;BME280;2057;50.858;6.572;2023-12-20T09:57:35;100443.84;;;5.94;100.00
4085;BME280;2057;50.858;6.572;2023-12-20T10:00:00;100440.56;;;5.95;100.00
4085;BME280;2057;50.858;6.572;2023-12-20T10:02:28;100436.59;;;5.99;100.00
4085;BME280;2057;50.858;6.572;2023-12-20T10:04:57;100447.72;;;6.14;100.00
4085;BME280;2057;50.858;6.572;2023-12-20T10:07:22;100433.97;;;6.22;100.00
4085;BME280;2057;50.858;6.572;2023-12-20T10:09:51;100432.59;;;6.14;100.00
4085;BME280;2057;50.858;6.572;2023-12-20T10:12:19;100437.34;;;6.09;100.00
4085;BME280;2057;50.858;6.572;2023-12-20T10:14:44;100434.50;;;6.05;100.00
4085;BME280;2057;50.858;6.572;2023-12-20T10:17:09;100435.50;;;6.07;100.00
4085;BME280;2057;50.858;6.572;2023-12-20T10:19:35;100439.84;;;6.09;100.00
4085;BME280;2057;50.858;6.572;2023-12-20T10:22:01;100437.66;;;6.14;100.00
4085;BME280;2057;50.858;6.572;2023-12-20T10:24:29;100436.09;;;6.16;100.00
4085;BME280;2057;50.858;6.572;2023-12-20T10:27:05;100422.34;;;6.11;100.00
4085;BME280;2057;50.858;6.572;2023-12-20T10:29:35;100422.34;;;6.11;100.00
4085;BME280;2057;50.858;6.572;2023-12-20T10:32:27;100419.22;;;6.15;100.00
4085;BME280;2057;50.858;6.572;2023-12-20T10:34:54;100420.91;;;6.15;100.00
4085;BME280;2057;50.858;6.572;2023-12-20T10:37:20;100419.44;;;6.18;100.00
4085;BME280;2057;50.858;6.572;2023-12-20T10:39:53;100404.16;;;6.28;100.00
4085;BME280;2057;50.858;6.572;2023-12-20T10:42:22;100397.53;;;6.17;100.00
4085;BME280;2057;50.858;6.572;2023-12-20T10:44:49;100399.09;;;6.28;100.00
4085;BME280;2057;50.858;6.572;2023-12-20T10:47:16;100398.22;;;6.28;100.00
4085;BME280;2057;50.858;6.572;2023-12-20T10:49:42;100392.31;;;6.27;100.00
4085;BME280;2057;50.858;6.572;2023-12-20T10:52:09;100396.00;;;6.33;100.00
4085;BME280;2057;50.858;6.572;2023-12-20T10:54:36;100401.13;;;6.34;100.00
4085;BME280;2057;50.858;6.572;2023-12-20T10:57:05;100403.94;;;6.39;100.00
4085;BME280;2057;50.858;6.572;2023-12-20T10:59:33;100401.41;;;6.39;100.00
4085;BME280;2057;50.858;6.572;2023-12-20T11:01:59;100416.25;;;6.34;100.00
4085;BME280;2057;50.858;6.572;2023-12-20T11:07:34;100417.81;;;6.32;100.00
4085;BME280;2057;50.858;6.572;2023-12-20T11:15:16;100421.88;;;6.30;100.00
4085;BME280;2057;50.858;6.572;2023-12-20T11:17:44;100423.94;;;6.36;100.00
4085;BME280;2057;50.858;6.572;2023-12-20T11:20:11;100425.78;;;6.38;100.00
4085;BME280;2057;50.858;6.572;2023-12-20T11:22:37;100427.41;;;6.38;100.00
4085;BME280;2057;50.858;6.572;2023-12-20T11:32:47;100395.13;;;6.46;100.00
4085;BME280;2057;50.858;6.572;2023-12-20T11:37:38;100380.59;;;6.55;100.00
4085;BME280;2057;50.858;6.572;2023-12-20T11:40:13;100386.91;;;6.62;100.00
4085;BME280;2057;50.858;6.572;2023-12-20T11:42:48;100381.38;;;6.67;100.00
4085;BME280;2057;50.858;6.572;2023-12-20T11:45:15;100372.81;;;6.65;100.00
4085;BME280;2057;50.858;6.572;2023-12-20T11:47:49;100374.66;;;6.68;100.00
4085;BME280;2057;50.858;6.572;2023-12-20T11:50:21;100378.03;;;6.68;100.00
4085;BME280;2057;50.858;6.572;2023-12-20T11:52:51;100377.47;;;6.72;100.00
4085;BME280;2057;50.858;6.572;2023-12-20T11:55:17;100382.81;;;6.77;100.00
4085;BME280;2057;50.858;6.572;2023-12-20T11:57:43;100378.72;;;6.66;100.00
4085;BME280;2057;50.858;6.572;2023-12-20T12:00:08;100382.16;;;6.66;100.00
4085;BME280;2057;50.858;6.572;2023-12-20T12:02:37;100381.38;;;6.67;100.00
4085;BME280;2057;50.858;6.572;2023-12-20T12:05:05;100384.47;;;6.63;100.00
4085;BME280;2057;50.858;6.572;2023-12-20T12:07:32;100380.97;;;6.61;100.00
4085;BME280;2057;50.858;6.572;2023-12-20T12:09:59;100371.00;;;6.63;100.00
4085;BME280;2057;50.858;6.572;2023-12-20T12:12:25;100368.28;;;6.59;100.00
4085;BME280;2057;50.858;6.572;2023-12-20T12:14:52;100356.44;;;6.58;100.00
4085;BME280;2057;50.858;6.572;2023-12-20T12:17:18;100362.94;;;6.55;100.00
4085;BME280;2057;50.858;6.572;2023-12-20T12:19:46;100346.75;;;6.51;100.00
4085;BME280;2057;50.858;6.572;2023-12-20T12:22:17;100348.09;;;6.59;100.00
4085;BME280;2057;50.858;6.572;2023-12-20T12:24:46;100339.38;;;6.54;100.00
4085;BME280;2057;50.858;6.572;2023-12-20T12:27:12;100345.00;;;6.50;100.00
4085;BME280;2057;50.858;6.572;2023-12-20T12:29:38;100342.66;;;6.53;100.00
4085;BME280;2057;50.858;6.572;2023-12-20T12:32:07;100341.78;;;6.53;100.00
4085;BME280;2057;50.858;6.572;2023-12-20T12:34:36;100341.78;;;6.53;100.00
4085;BME280;2057;50.858;6.572;2023-12-20T12:37:06;100340.91;;;6.52;100.00
4085;BME280;2057;50.858;6.572;2023-12-20T12:39:31;100336.72;;;6.53;100.00
4085;BME280;2057;50.858;6.572;2023-12-20T12:41:57;100340.31;;;6.56;100.00
4085;BME280;2057;50.858;6.572;2023-12-20T12:44:22;100332.28;;;6.49;100.00
4085;BME280;2057;50.858;6.572;2023-12-20T12:46:50;100335.88;;;6.52;100.00
4085;BME280;2057;50.858;6.572;2023-12-20T12:49:16;100330.22;;;6.56;100.00
4085;BME280;2057;50.858;6.572;2023-12-20T12:51:42;100320.44;;;6.61;100.00
4085;BME280;2057;50.858;6.572;2023-12-20T12:54:08;100319.19;;;6.54;100.00
4085;BME280;2057;50.858;6.572;2023-12-20T12:56:34;100309.88;;;6.53;100.00
4085;BME280;2057;50.858;6.572;2023-12-20T12:58:59;100312.97;;;6.49;100.00
4085;BME280;2057;50.858;6.572;2023-12-20T13:01:24;100319.09;;;6.53;100.00
4085;BME280;2057;50.858;6.572;2023-12-20T13:03:50;100318.78;;;6.48;100.00
4085;BME280;2057;50.858;6.572;2023-12-20T13:06:17;100307.97;;;6.36;100.00
4085;BME280;2057;50.858;6.572;2023-12-20T13:08:42;100317.44;;;6.40;100.00
4085;BME280;2057;50.858;6.572;2023-12-20T13:11:11;100318.41;;;6.42;100.00
4085;BME280;2057;50.858;6.572;2023-12-20T13:13:37;100305.22;;;6.46;100.00
4085;BME280;2057;50.858;6.572;2023-12-20T13:16:02;100299.22;;;6.44;100.00
4085;BME280;2057;50.858;6.572;2023-12-20T13:18:28;100292.50;;;6.44;100.00
4085;BME280;2057;50.858;6.572;2023-12-20T13:20:53;100294.19;;;6.44;100.00
4085;BME280;2057;50.858;6.572;2023-12-20T13:23:18;100273.72;;;6.39;100.00
4085;BME280;2057;50.858;6.572;2023-12-20T13:25:44;100279.63;;;6.40;100.00